createdAt,value
2019-03-31T00:00:08.131Z,40.47
2019-03-31T00:02:39.349Z,41.53
2019-03-31T00:05:10.853Z,45.43
2019-03-31T00:07:42.030Z,50.10
2019-03-31T00:10:13.584Z,46.37
2019-03-31T00:12:44.810Z,51.87
2019-03-31T00:15:16.050Z,54.07
2019-03-31T00:17:47.230Z,55.80
2019-03-31T00:20:18.390Z,59.73
2019-03-31T00:22:49.568Z,53.60
2019-03-31T00:25:20.800Z,54.80
2019-03-31T00:27:51.905Z,58.00
2019-03-31T00:30:23.094Z,63.27
2019-03-31T00:32:54.344Z,65.73
2019-03-31T00:35:25.593Z,69.50
2019-03-31T00:37:56.765Z,68.73
2019-03-31T00:40:27.960Z,67.80
2019-03-31T00:42:59.294Z,67.53
2019-03-31T00:45:30.500Z,67.83
2019-03-31T00:48:01.942Z,66.57
2019-03-31T00:50:33.234Z,64.53
2019-03-31T00:53:04.403Z,61.83
2019-03-31T00:55:35.689Z,62.83
2019-03-31T00:58:06.982Z,67.00
2019-03-31T01:00:57.744Z,68.13
2019-03-31T01:03:29.700Z,65.57
2019-03-31T01:06:01.010Z,63.73
2019-03-31T01:08:34.878Z,64.40
2019-03-31T01:11:13.439Z,59.57
2019-03-31T01:13:45.743Z,59.37
2019-03-31T01:16:18.220Z,60.97
2019-03-31T01:18:49.576Z,57.13
2019-03-31T01:21:21.300Z,55.33
2019-03-31T01:23:52.572Z,58.50
2019-03-31T01:26:23.820Z,54.87
2019-03-31T01:28:56.726Z,54.80
2019-03-31T01:31:28.419Z,51.97
2019-03-31T01:34:00.048Z,55.90
2019-03-31T01:36:31.221Z,54.93
2019-03-31T01:39:02.407Z,58.87
2019-03-31T01:41:33.589Z,57.80
2019-03-31T01:44:04.844Z,56.27
2019-03-31T01:46:36.149Z,54.63
2019-03-31T01:49:07.659Z,50.70
2019-03-31T01:51:38.777Z,50.07
2019-03-31T01:54:09.998Z,49.97
2019-03-31T01:56:44.609Z,47.27
2019-03-31T01:59:14.394Z,48.37
2019-03-31T02:01:45.746Z,45.97
2019-03-31T02:04:16.941Z,41.43
2019-03-31T02:06:48.359Z,38.30
2019-03-31T02:09:19.546Z,35.07
2019-03-31T02:11:50.808Z,33.30
2019-03-31T02:14:22.048Z,33.27
2019-03-31T02:16:53.294Z,32.63
2019-03-31T02:19:24.408Z,32.47
2019-03-31T02:21:55.657Z,30.73
2019-03-31T02:24:26.864Z,32.57
2019-03-31T02:26:58.264Z,32.30
2019-03-31T02:29:29.483Z,34.20
2019-03-31T02:32:00.676Z,33.30
2019-03-31T02:34:31.822Z,33.13
2019-03-31T02:37:03.162Z,32.13
2019-03-31T02:39:34.434Z,32.57
2019-03-31T02:42:06.005Z,33.10
2019-03-31T02:44:37.090Z,30.37
2019-03-31T02:47:08.255Z,32.17
2019-03-31T02:49:39.488Z,32.13
2019-03-31T02:52:10.941Z,31.63
2019-03-31T02:54:42.170Z,31.23
2019-03-31T02:57:13.634Z,32.37
2019-03-31T02:59:45.452Z,32.37
2019-03-31T03:02:17.621Z,31.03
2019-03-31T03:04:50.868Z,32.67
2019-03-31T03:07:23.511Z,31.90
2019-03-31T03:09:55.598Z,34.07
2019-03-31T03:12:30.468Z,33.43
2019-03-31T03:15:04.955Z,35.60
2019-03-31T03:17:36.101Z,34.57
2019-03-31T03:20:07.931Z,35.10
2019-03-31T03:22:39.029Z,35.20
2019-03-31T03:25:10.505Z,34.80
2019-03-31T03:27:41.832Z,33.93
2019-03-31T03:30:13.685Z,34.97
2019-03-31T03:33:12.407Z,33.57
2019-03-31T03:35:17.959Z,35.00
2019-03-31T03:37:49.639Z,34.27
2019-03-31T03:40:20.826Z,35.27
2019-03-31T03:42:52.033Z,34.70
2019-03-31T03:45:23.280Z,34.93
2019-03-31T03:47:54.359Z,34.67
2019-03-31T03:50:25.866Z,37.43
2019-03-31T03:52:57.095Z,39.60
2019-03-31T03:55:28.220Z,37.13
2019-03-31T03:57:59.296Z,36.13
2019-03-31T04:00:30.595Z,38.83
2019-03-31T04:03:01.797Z,35.33
2019-03-31T04:05:32.989Z,36.97
2019-03-31T04:08:04.094Z,37.47
2019-03-31T04:11:22.885Z,40.53
2019-03-31T04:13:54.513Z,40.70
2019-03-31T04:16:25.880Z,39.30
2019-03-31T04:18:57.230Z,38.77
2019-03-31T04:21:28.644Z,39.13
2019-03-31T04:24:00.146Z,40.20
2019-03-31T04:26:31.441Z,40.50
2019-03-31T04:29:02.636Z,40.17
2019-03-31T04:31:33.907Z,39.33
2019-03-31T04:34:05.226Z,39.17
2019-03-31T04:36:36.477Z,41.23
2019-03-31T04:39:09.599Z,41.77
2019-03-31T04:41:40.869Z,39.40
2019-03-31T04:44:12.205Z,41.20
2019-03-31T04:46:43.427Z,36.13
2019-03-31T04:49:14.565Z,32.00
2019-03-31T04:51:45.779Z,28.33
2019-03-31T04:54:17.089Z,29.33
2019-03-31T04:56:48.209Z,27.87
2019-03-31T04:59:19.404Z,27.17
2019-03-31T05:01:50.609Z,29.43
2019-03-31T05:04:21.808Z,30.13
2019-03-31T05:06:53.845Z,28.73
2019-03-31T05:09:25.088Z,30.87
2019-03-31T05:11:56.285Z,29.27
2019-03-31T05:14:46.256Z,32.17
2019-03-31T05:17:17.430Z,29.17
2019-03-31T05:19:48.535Z,29.30
2019-03-31T05:22:19.799Z,29.80
2019-03-31T05:24:51.054Z,29.97
2019-03-31T05:27:22.358Z,28.83
2019-03-31T05:29:53.581Z,28.30
2019-03-31T05:32:24.799Z,27.20
2019-03-31T05:34:55.938Z,28.53
2019-03-31T05:37:27.220Z,30.47
2019-03-31T05:39:58.393Z,35.60
2019-03-31T05:42:29.678Z,32.50
2019-03-31T05:45:00.880Z,34.00
2019-03-31T05:47:32.088Z,36.87
2019-03-31T05:50:03.473Z,35.47
2019-03-31T05:52:34.699Z,37.53
2019-03-31T05:55:06.293Z,33.63
2019-03-31T05:57:37.598Z,34.47
2019-03-31T06:00:09.555Z,31.50
2019-03-31T06:02:40.694Z,29.87
2019-03-31T06:05:12.154Z,29.20
2019-03-31T06:07:44.299Z,29.43
2019-03-31T06:10:18.028Z,29.30
2019-03-31T06:12:49.571Z,28.47
2019-03-31T06:15:22.070Z,28.17
2019-03-31T06:17:54.480Z,30.27
2019-03-31T06:20:25.809Z,30.10
2019-03-31T06:22:57.328Z,31.17
2019-03-31T06:25:28.670Z,34.00
2019-03-31T06:27:59.988Z,34.27
2019-03-31T06:30:31.605Z,35.37
2019-03-31T06:33:03.224Z,34.77
2019-03-31T06:35:34.470Z,34.77
2019-03-31T06:38:05.795Z,34.47
2019-03-31T06:40:37.234Z,34.87
2019-03-31T06:43:08.651Z,36.43
2019-03-31T06:45:40.245Z,34.37
2019-03-31T06:48:11.824Z,35.73
2019-03-31T06:50:43.360Z,38.17
2019-03-31T06:53:14.957Z,37.87
2019-03-31T06:55:46.493Z,37.53
2019-03-31T06:58:17.918Z,37.87
2019-03-31T07:00:49.164Z,34.60
2019-03-31T07:03:20.357Z,36.63
2019-03-31T07:05:51.806Z,36.77
2019-03-31T07:08:23.245Z,35.17
2019-03-31T07:10:54.683Z,35.13
2019-03-31T07:13:25.928Z,36.87
2019-03-31T07:15:58.176Z,34.77
2019-03-31T07:18:29.876Z,34.37
2019-03-31T07:21:01.353Z,30.23
2019-03-31T07:23:35.041Z,29.83
2019-03-31T07:26:06.560Z,33.60
2019-03-31T07:28:38.015Z,32.83
2019-03-31T07:31:11.605Z,32.60
2019-03-31T07:33:42.777Z,31.50
2019-03-31T07:36:14.089Z,31.83
2019-03-31T07:38:45.420Z,31.20
2019-03-31T07:41:16.766Z,25.17
2019-03-31T07:43:48.279Z,25.23
2019-03-31T07:46:19.508Z,23.37
2019-03-31T07:48:50.746Z,22.73
2019-03-31T07:51:22.324Z,22.00
2019-03-31T07:53:53.649Z,22.80
2019-03-31T07:56:25.017Z,23.83
2019-03-31T07:58:56.212Z,25.70
2019-03-31T08:01:27.859Z,26.57
2019-03-31T08:04:00.919Z,26.70
2019-03-31T08:06:32.568Z,25.83
2019-03-31T08:09:07.368Z,24.03
2019-03-31T08:11:38.700Z,27.37
2019-03-31T08:14:09.995Z,27.03
2019-03-31T08:16:41.186Z,23.37
2019-03-31T08:19:12.315Z,23.87
2019-03-31T08:21:43.567Z,22.60
2019-03-31T08:24:14.777Z,24.27
2019-03-31T08:26:45.914Z,24.10
2019-03-31T08:29:17.005Z,24.07
2019-03-31T08:31:49.113Z,22.43
2019-03-31T08:34:20.485Z,21.90
2019-03-31T08:36:51.785Z,24.83
2019-03-31T08:39:29.230Z,22.40
2019-03-31T08:42:00.606Z,22.47
2019-03-31T08:44:31.888Z,23.60
2019-03-31T08:47:03.472Z,25.23
2019-03-31T08:49:34.673Z,21.33
2019-03-31T08:52:06.298Z,22.17
2019-03-31T08:54:38.026Z,21.23
2019-03-31T08:57:09.459Z,19.70
2019-03-31T08:59:40.974Z,20.70
2019-03-31T09:02:31.829Z,20.90
2019-03-31T09:05:03.145Z,20.30
2019-03-31T09:07:34.404Z,20.40
2019-03-31T09:10:07.329Z,20.83
2019-03-31T09:12:39.217Z,19.30
2019-03-31T09:15:13.180Z,20.03
2019-03-31T09:18:01.317Z,20.47
2019-03-31T09:20:32.548Z,19.93
2019-03-31T09:23:03.899Z,19.20
2019-03-31T09:25:35.216Z,20.13
2019-03-31T09:28:06.428Z,20.30
2019-03-31T09:30:37.798Z,20.60
2019-03-31T09:33:09.109Z,20.63
2019-03-31T09:35:40.228Z,20.27
2019-03-31T09:38:11.445Z,20.50
2019-03-31T09:40:42.715Z,21.23
2019-03-31T09:43:13.944Z,21.20
2019-03-31T09:45:45.219Z,20.57
2019-03-31T09:48:18.885Z,20.53
2019-03-31T09:50:50.206Z,20.37
2019-03-31T09:53:21.519Z,20.73
2019-03-31T09:55:52.890Z,22.13
2019-03-31T09:58:24.147Z,21.93
2019-03-31T10:00:55.621Z,23.07
2019-03-31T10:03:27.010Z,21.90
2019-03-31T10:06:10.057Z,21.73
2019-03-31T10:08:32.145Z,23.13
2019-03-31T10:11:03.489Z,22.73
2019-03-31T10:13:34.768Z,23.00
2019-03-31T10:16:05.991Z,23.20
2019-03-31T10:18:37.175Z,23.13
2019-03-31T10:21:08.482Z,23.53
2019-03-31T10:23:39.733Z,24.43
2019-03-31T10:26:11.088Z,26.17
2019-03-31T10:28:42.250Z,25.70
2019-03-31T10:31:13.379Z,25.83
2019-03-31T10:33:44.650Z,25.07
2019-03-31T10:36:16.284Z,24.27
2019-03-31T10:38:47.610Z,24.27
2019-03-31T10:41:18.908Z,25.10
2019-03-31T10:43:50.248Z,25.23
2019-03-31T10:46:21.591Z,21.87
2019-03-31T10:48:52.766Z,23.27
2019-03-31T10:51:24.065Z,23.30
2019-03-31T10:53:55.263Z,24.33
2019-03-31T10:56:26.603Z,22.20
2019-03-31T10:58:58.023Z,20.63
2019-03-31T11:01:29.325Z,21.30
2019-03-31T11:04:00.572Z,21.73
2019-03-31T11:06:32.119Z,22.63
2019-03-31T11:09:05.068Z,22.53
2019-03-31T11:11:36.589Z,22.63
2019-03-31T11:14:07.854Z,21.60
2019-03-31T11:16:39.009Z,21.03
2019-03-31T11:19:10.167Z,19.97
2019-03-31T11:21:47.474Z,20.93
2019-03-31T11:24:18.787Z,21.10
2019-03-31T11:26:50.089Z,19.03
2019-03-31T11:29:21.253Z,19.23
2019-03-31T11:31:52.394Z,19.07
2019-03-31T11:34:23.555Z,19.07
2019-03-31T11:36:54.983Z,17.50
2019-03-31T11:39:26.389Z,19.60
2019-03-31T11:41:57.708Z,19.57
2019-03-31T11:44:29.031Z,19.93
2019-03-31T11:47:00.410Z,17.97
2019-03-31T11:49:31.690Z,17.90
2019-03-31T11:52:02.894Z,17.57
2019-03-31T11:54:34.164Z,17.37
2019-03-31T11:57:05.390Z,16.93
2019-03-31T11:59:36.558Z,15.77
2019-03-31T12:02:08.066Z,17.07
2019-03-31T12:04:39.470Z,17.27
2019-03-31T12:07:10.698Z,16.73
2019-03-31T12:09:41.873Z,16.60
2019-03-31T12:12:13.170Z,14.53
2019-03-31T12:14:44.501Z,14.77
2019-03-31T12:17:16.332Z,15.47
2019-03-31T12:19:48.858Z,14.50
2019-03-31T12:22:20.369Z,14.73
2019-03-31T12:24:51.621Z,13.80
2019-03-31T12:27:23.019Z,14.93
2019-03-31T12:29:55.453Z,14.13
2019-03-31T12:32:26.773Z,12.57
2019-03-31T12:34:58.063Z,11.37
2019-03-31T12:37:41.695Z,12.93
2019-03-31T12:40:02.249Z,14.37
2019-03-31T12:42:33.568Z,16.87
2019-03-31T12:45:05.739Z,17.87
2019-03-31T12:47:37.007Z,17.57
2019-03-31T12:50:08.983Z,18.03
2019-03-31T12:52:46.512Z,18.37
2019-03-31T12:55:13.327Z,20.23
2019-03-31T12:57:44.447Z,18.40
2019-03-31T13:00:16.720Z,16.00
2019-03-31T13:02:48.046Z,15.93
2019-03-31T13:05:19.435Z,15.03
2019-03-31T13:07:56.683Z,16.80
2019-03-31T13:10:23.684Z,16.80
2019-03-31T13:12:55.020Z,16.90
2019-03-31T13:15:26.326Z,17.83
2019-03-31T13:17:57.885Z,17.03
2019-03-31T13:20:29.340Z,16.97
2019-03-31T13:23:00.754Z,17.37
2019-03-31T13:25:32.111Z,16.83
2019-03-31T13:28:05.659Z,17.37
2019-03-31T13:30:36.363Z,17.33
2019-03-31T13:33:16.666Z,16.50
2019-03-31T13:35:47.987Z,17.03
2019-03-31T13:38:19.221Z,16.67
2019-03-31T13:40:50.717Z,17.07
2019-03-31T13:43:22.029Z,16.53
2019-03-31T13:45:53.355Z,17.13
2019-03-31T13:48:24.874Z,16.37
2019-03-31T13:50:56.080Z,16.90
2019-03-31T13:53:27.464Z,16.80
2019-03-31T13:55:58.667Z,16.30
2019-03-31T13:58:30.529Z,15.90
2019-03-31T14:01:02.193Z,15.40
2019-03-31T14:03:33.640Z,15.03
2019-03-31T14:06:04.940Z,14.83
2019-03-31T14:08:36.104Z,16.17
2019-03-31T14:11:08.074Z,15.13
2019-03-31T14:13:39.227Z,14.70
2019-03-31T14:16:10.588Z,14.37
2019-03-31T14:18:41.808Z,13.73
2019-03-31T14:21:12.939Z,14.00
2019-03-31T14:23:44.280Z,14.23
2019-03-31T14:26:15.519Z,14.87
2019-03-31T14:28:46.598Z,14.10
2019-03-31T14:31:17.828Z,14.13
2019-03-31T14:33:49.321Z,15.27
2019-03-31T14:36:20.589Z,14.97
2019-03-31T14:38:52.064Z,13.57
2019-03-31T14:41:23.528Z,13.90
2019-03-31T14:43:54.870Z,14.10
2019-03-31T14:46:26.150Z,12.87
2019-03-31T14:48:57.386Z,13.30
2019-03-31T14:51:28.711Z,12.80
2019-03-31T14:54:00.175Z,12.03
2019-03-31T14:56:31.462Z,11.97
2019-03-31T14:59:02.905Z,11.33
2019-03-31T15:01:33.999Z,10.47
2019-03-31T15:04:05.319Z,10.70
2019-03-31T15:06:36.495Z,9.87
2019-03-31T15:09:09.844Z,10.43
2019-03-31T15:11:41.018Z,10.03
2019-03-31T15:14:12.270Z,10.40
2019-03-31T15:16:43.513Z,9.83
2019-03-31T15:19:14.717Z,9.40
2019-03-31T15:21:45.905Z,10.27
2019-03-31T15:24:17.208Z,10.17
2019-03-31T15:26:48.495Z,10.40
2019-03-31T15:29:19.685Z,9.57
2019-03-31T15:31:51.124Z,10.17
2019-03-31T15:34:22.449Z,10.57
2019-03-31T15:36:53.664Z,9.63
2019-03-31T15:39:24.984Z,9.73
2019-03-31T15:41:56.341Z,10.60
2019-03-31T15:44:27.589Z,10.20
2019-03-31T15:46:58.869Z,10.83
2019-03-31T15:49:30.237Z,10.70
2019-03-31T15:52:01.484Z,10.47
2019-03-31T15:54:32.802Z,11.67
2019-03-31T15:57:04.185Z,11.17
2019-03-31T15:59:39.008Z,12.10
2019-03-31T16:02:12.375Z,11.90
2019-03-31T16:04:44.544Z,12.77
2019-03-31T16:07:21.689Z,12.33
2019-03-31T16:09:52.333Z,11.90
2019-03-31T16:12:23.055Z,11.50
2019-03-31T16:14:54.710Z,11.60
2019-03-31T16:17:26.265Z,12.13
2019-03-31T16:20:04.615Z,10.87
2019-03-31T16:22:38.659Z,11.40
2019-03-31T16:25:21.078Z,11.07
2019-03-31T16:27:52.390Z,10.13
2019-03-31T16:30:23.315Z,10.03
2019-03-31T16:32:57.694Z,10.00
2019-03-31T16:35:30.670Z,9.73
2019-03-31T16:38:01.231Z,9.97
2019-03-31T16:40:31.864Z,10.93
2019-03-31T16:43:03.470Z,10.87
2019-03-31T16:45:36.460Z,11.10
2019-03-31T16:48:07.044Z,10.87
2019-03-31T16:50:40.635Z,10.80
2019-03-31T16:53:14.199Z,12.07
2019-03-31T16:55:46.002Z,12.33
2019-03-31T16:58:18.674Z,12.47
2019-03-31T17:00:49.268Z,11.43
2019-03-31T17:03:21.120Z,13.13
2019-03-31T17:05:54.122Z,11.87
2019-03-31T17:08:24.734Z,11.53
2019-03-31T17:10:55.194Z,11.50
2019-03-31T17:13:25.801Z,12.37
2019-03-31T17:15:56.278Z,12.27
2019-03-31T17:18:27.084Z,11.50
2019-03-31T17:21:08.340Z,11.17
2019-03-31T17:23:40.988Z,10.37
2019-03-31T17:26:13.880Z,10.70
2019-03-31T17:28:44.469Z,10.17
2019-03-31T17:31:15.253Z,10.40
2019-03-31T17:33:46.003Z,10.30
2019-03-31T17:36:18.212Z,9.53
2019-03-31T17:38:49.905Z,11.00
2019-03-31T17:41:20.621Z,10.50
2019-03-31T17:43:51.249Z,10.40
2019-03-31T17:46:23.373Z,11.67
2019-03-31T17:48:56.268Z,11.63
2019-03-31T17:51:29.985Z,11.40
2019-03-31T17:54:06.268Z,11.63
2019-03-31T17:56:36.484Z,11.00
2019-03-31T17:59:08.918Z,11.23
2019-03-31T18:01:40.954Z,10.57
2019-03-31T18:04:14.743Z,10.33
2019-03-31T18:06:47.680Z,10.27
2019-03-31T18:09:24.335Z,10.23
2019-03-31T18:11:57.575Z,9.87
2019-03-31T18:14:29.184Z,10.40
2019-03-31T18:17:03.319Z,10.67
2019-03-31T18:19:33.904Z,10.50
2019-03-31T18:22:16.384Z,10.23
2019-03-31T18:24:40.639Z,11.57
2019-03-31T18:27:16.414Z,10.83
2019-03-31T18:29:52.249Z,12.30
2019-03-31T18:32:29.479Z,13.47
2019-03-31T18:35:09.994Z,15.13
2019-03-31T18:37:40.605Z,16.43
2019-03-31T18:40:12.328Z,17.37
2019-03-31T18:42:48.105Z,17.20
2019-03-31T18:45:20.015Z,16.70
2019-03-31T18:47:50.548Z,17.03
2019-03-31T18:50:21.134Z,16.63
2019-03-31T18:52:52.785Z,14.70
2019-03-31T18:55:35.538Z,16.70
2019-03-31T18:58:21.811Z,14.37
2019-03-31T19:01:10.029Z,13.30
2019-03-31T19:04:12.372Z,12.80
2019-03-31T19:06:54.729Z,12.23
2019-03-31T19:09:35.493Z,12.10
2019-03-31T19:12:27.322Z,12.70
2019-03-31T19:15:17.641Z,12.03
2019-03-31T19:18:07.444Z,11.77
2019-03-31T19:21:11.511Z,11.47
2019-03-31T19:23:54.192Z,12.40
2019-03-31T19:26:48.742Z,12.37
2019-03-31T19:29:41.118Z,12.93
2019-03-31T19:32:21.189Z,12.33
2019-03-31T19:35:22.736Z,12.97
2019-03-31T19:38:14.116Z,13.97
2019-03-31T19:41:05.821Z,14.13
2019-03-31T19:43:55.104Z,15.40
2019-03-31T19:46:35.772Z,14.30
2019-03-31T19:49:26.335Z,13.53
2019-03-31T19:52:16.084Z,12.90
2019-03-31T19:55:09.655Z,10.40
2019-03-31T19:57:58.900Z,9.80
2019-03-31T20:00:53.031Z,9.40
2019-03-31T20:03:44.645Z,8.90
2019-03-31T20:06:27.750Z,9.10
2019-03-31T20:09:13.914Z,8.37
2019-03-31T20:12:07.668Z,7.93
2019-03-31T20:15:09.915Z,8.70
2019-03-31T20:18:00.320Z,9.00
2019-03-31T20:20:49.524Z,8.80
2019-03-31T20:23:34.680Z,8.77
2019-03-31T20:26:24.101Z,7.90
2019-03-31T20:29:10.584Z,9.30
2019-03-31T20:31:59.987Z,7.93
2019-03-31T20:34:44.764Z,8.10
2019-03-31T20:37:35.965Z,7.90
2019-03-31T20:40:22.200Z,7.80
2019-03-31T20:43:11.479Z,8.10
2019-03-31T20:45:43.839Z,7.80
2019-03-31T20:48:16.488Z,8.00
2019-03-31T20:50:46.879Z,9.47
2019-03-31T20:53:19.388Z,8.87
2019-03-31T20:55:49.845Z,8.47
2019-03-31T20:58:20.224Z,8.43
2019-03-31T21:00:50.595Z,8.30
2019-03-31T21:03:21.148Z,8.53
2019-03-31T21:05:51.584Z,8.37
2019-03-31T21:08:22.164Z,8.13
2019-03-31T21:10:52.455Z,8.53
2019-03-31T21:13:22.855Z,8.03
2019-03-31T21:15:53.207Z,7.80
2019-03-31T21:18:23.654Z,8.13
2019-03-31T21:20:54.146Z,8.23
2019-03-31T21:23:24.528Z,7.97
2019-03-31T21:25:54.898Z,6.63
2019-03-31T21:28:25.307Z,7.27
2019-03-31T21:30:55.755Z,7.00
2019-03-31T21:33:26.093Z,6.17
2019-03-31T21:35:56.374Z,5.87
2019-03-31T21:38:26.839Z,6.63
2019-03-31T21:40:57.167Z,5.90
2019-03-31T21:43:27.514Z,5.97
2019-03-31T21:45:57.884Z,7.10
2019-03-31T21:48:28.308Z,6.10
2019-03-31T21:50:58.698Z,5.53
2019-03-31T21:53:28.984Z,5.77
2019-03-31T21:55:59.390Z,5.47
2019-03-31T21:58:29.800Z,5.83
2019-03-31T22:01:00.521Z,6.10
2019-03-31T22:03:30.870Z,4.33
2019-03-31T22:06:01.315Z,4.90
2019-03-31T22:08:31.740Z,4.87
2019-03-31T22:11:02.134Z,4.27
2019-03-31T22:13:32.541Z,4.83
2019-03-31T22:16:03.074Z,4.43
2019-03-31T22:18:33.820Z,4.07
2019-03-31T22:21:04.251Z,3.60
2019-03-31T22:23:37.766Z,3.87
2019-03-31T22:26:08.300Z,3.87
2019-03-31T22:28:38.778Z,3.70
2019-03-31T22:31:09.340Z,3.60
2019-03-31T22:33:39.726Z,3.63
2019-03-31T22:36:29.109Z,4.10
2019-03-31T22:38:59.468Z,3.03
2019-03-31T22:41:29.855Z,3.80
2019-03-31T22:44:00.311Z,3.13
2019-03-31T22:46:30.700Z,3.43
2019-03-31T22:49:01.080Z,3.33
2019-03-31T22:51:31.456Z,4.13
2019-03-31T22:54:01.820Z,4.40
2019-03-31T22:56:32.166Z,4.03
2019-03-31T22:59:02.513Z,3.60
2019-03-31T23:01:33.238Z,3.73
2019-03-31T23:04:03.726Z,4.27
2019-03-31T23:06:34.091Z,3.53
2019-03-31T23:09:06.126Z,3.70
2019-03-31T23:11:36.670Z,3.53
2019-03-31T23:14:07.104Z,3.30
2019-03-31T23:16:37.639Z,3.77
2019-03-31T23:19:08.590Z,3.67
2019-03-31T23:21:38.972Z,4.80
2019-03-31T23:24:09.430Z,3.40
2019-03-31T23:26:39.944Z,3.77
2019-03-31T23:29:10.324Z,3.80
2019-03-31T23:31:40.673Z,3.53
2019-03-31T23:34:11.114Z,3.70
2019-03-31T23:36:41.521Z,4.37
2019-03-31T23:39:11.929Z,3.83
2019-03-31T23:41:42.269Z,4.10
2019-03-31T23:44:12.900Z,3.50
2019-03-31T23:46:43.440Z,3.33
2019-03-31T23:49:13.789Z,3.67
2019-03-31T23:51:44.170Z,2.77
2019-03-31T23:54:14.507Z,3.70
2019-03-31T23:56:44.954Z,3.27
2019-03-31T23:59:15.410Z,3.47
